Flight Track Log - Related Links

Times and Time Zones

All times are in EDT time to prevent confusion due to time zone crossing. See the N69CK flight status page for this flight to view local times or setup timezone preferences in your user account.

Time Position Orientation Groundspeed Altitude Reporting Facility
EDT Latitude Longitude Course Direction KTS MPH feet Rate Location/Type
Fri 11:35:40 PM 27.7561 -97.4969 170° South 108 124 500  Level Houston Center
Fri 11:36:53 PM 27.7250 -97.4906 255° West 112 129 1,700 902 Climbing Houston Center
Fri 11:37:53 PM 27.7175 -97.5231 308° West 130 150 2,500 765 Climbing Houston Center
Fri 11:39:22 PM 27.7508 -97.5717 332° Northwest 148 170 3,600 765 Climbing Houston Center
Fri 11:40:22 PM 27.7853 -97.5925 329° Northwest 142 163 4,400 750 Climbing Houston Center
Fri 11:41:22 PM 27.8219 -97.6178 323° Northwest 142 163 5,100 750 Climbing Houston Center
Fri 11:42:22 PM 27.8542 -97.6456 316° Northwest 147 169 5,900 807 Climbing Houston Center
Fri 11:43:21 PM 27.8839 -97.6775 314° West 147 169 6,700 800 Climbing Houston Center
Fri 11:44:22 PM 27.9117 -97.7097 318° Northwest 140 161 7,500 793 Climbing Houston Center
Fri 11:45:22 PM 27.9436 -97.7419 315° West 145 167 8,300 700 Climbing Houston Center
Fri 11:46:22 PM 27.9656 -97.7667 328° Northwest 140 161 8,900 400 Climbing Houston Center
Fri 11:47:22 PM 28.0019 -97.7922 326° Northwest 145 167 9,100 403 Climbing Houston Center
Fri 11:48:21 PM 28.0383 -97.8203 329° Northwest 152 175 9,700 655 Climbing Houston Center
Fri 11:49:21 PM 28.0728 -97.8433 25° Northeast 150 173 10,400 645 Climbing Houston Center
Fri 11:50:22 PM 28.1092 -97.8242 22° Northeast 127 146 11,000 694 Climbing Houston Center
Fri 11:51:22 PM 28.1453 -97.8075 10° North 127 146 11,800 706 Climbing Houston Center
Fri 11:52:21 PM 28.1811 -97.8000 360° North 127 146 12,400 650 Climbing Houston Center
Fri 11:53:22 PM 28.2269 -97.8003 North 140 161 13,100 700 Climbing Houston Center
Fri 11:54:21 PM 28.2647 -97.7956 13° North 145 167 13,800 650 Climbing Houston Center
Fri 11:55:22 PM 28.3008 -97.7858 13° North 135 155 14,400 650 Climbing Houston Center
Fri 11:56:21 PM 28.3367 -97.7761 15° North 135 155 15,100 655 Climbing Houston Center
Fri 11:57:21 PM 28.3747 -97.7642 15° North 135 155 15,700 600 Climbing Houston Center
Fri 11:58:21 PM 28.4150 -97.7522 12° North 135 155 16,300 645 Climbing Houston Center
Fri 11:59:22 PM 28.4550 -97.7425 15° North 135 155 17,000 600 Climbing Houston Center
Sat 12:00:21 AM 28.4931 -97.7306 16° North 135 155 17,500 555 Climbing Houston Center
Sat 12:01:21 AM 28.5292 -97.7186 15° North 135 155 18,100 500 Climbing Houston Center
Sat 12:02:21 AM 28.5694 -97.7067 17° North 141 162 18,500 400 Climbing Houston Center
Sat 12:03:21 AM 28.6097 -97.6925 16° North 147 169 18,900 248 Climbing Houston Center
Sat 12:04:22 AM 28.6542 -97.6783 12° North 147 169 19,000 50 Climbing Houston Center
Sat 12:05:22 AM 28.7006 -97.6667 15° North 158 182 19,000  Level Houston Center
Sat 12:06:22 AM 28.7469 -97.6528 13° North 163 188 19,000  Level Houston Center
Sat 12:07:22 AM 28.7978 -97.6392 13° North 174 200 19,000  Level Houston Center
Sat 12:08:22 AM 28.8506 -97.6256 14° North 179 206 19,000  Level Houston Center
Sat 12:09:22 AM 28.9011 -97.6117 15° North 185 213 19,000  Level Houston Center
Sat 12:10:22 AM 28.9519 -97.5956 15° North 185 213 19,000  Level Houston Center
Sat 12:11:22 AM 29.0047 -97.5794 13° North 185 213 19,000  Level Houston Center
Sat 12:12:22 AM 29.0575 -97.5658 14° North 185 213 19,000  Level Houston Center
Sat 12:13:22 AM 29.1125 -97.5500 15° North 185 213 19,000  Level Houston Center
Sat 12:14:22 AM 29.1653 -97.5339 14° North 185 213 19,000  Level Houston Center
Sat 12:15:21 AM 29.2203 -97.5181 16° North 185 213 19,000  Level Houston Center
Sat 12:16:22 AM 29.2711 -97.5017 12° North 185 213 19,000  Level Houston Center
Sat 12:17:21 AM 29.3258 -97.4881 17° North 185 213 19,000  Level Houston Center
Sat 12:18:21 AM 29.3789 -97.4697 15° North 185 213 19,000  Level Houston Center
Sat 12:19:21 AM 29.4317 -97.4536 12° North 185 213 19,000  Level Houston Center
Sat 12:20:21 AM 29.4867 -97.4400 15° North 185 213 19,000  Level Houston Center
Sat 12:21:21 AM 29.5394 -97.4239 13° North 185 213 19,000  Level Houston Center
Sat 12:22:22 AM 29.5922 -97.4100 15° North 185 213 19,000  Level Houston Center
Sat 12:23:22 AM 29.6450 -97.3939 12° North 185 213 19,000  Level Houston Center
Sat 12:24:21 AM 29.7019 -97.3803 17° North 185 213 19,000  Level Houston Center
Sat 12:25:22 AM 29.7442 -97.3658 14° North 185 213 19,000  Level Houston Center
Sat 12:26:21 AM 29.8075 -97.3478 15° North 185 213 19,000  Level Houston Center
Sat 12:27:22 AM 29.8542 -97.3336 14° North 185 213 19,000  Level Houston Center
Sat 12:28:22 AM 29.9089 -97.3175 15° North 185 213 19,000  Level Houston Center
Sat 12:29:21 AM 29.9619 -97.3011 12° North 185 213 19,000  Level Houston Center
Sat 12:30:21 AM 30.0167 -97.2875 15° North 185 213 19,000  Level Houston Center
Sat 12:31:21 AM 30.0694 -97.2711 17° North 185 213 19,000  Level Houston Center
Sat 12:32:22 AM 30.1267 -97.2503 16° North 185 213 19,000  Level Houston Center
Sat 12:33:22 AM 30.1753 -97.2339 13° North 191 220 19,000  Level Houston Center
Sat 12:34:21 AM 30.2281 -97.2197 12° North 191 220 19,000  Level Houston Center
Sat 12:35:21 AM 30.2828 -97.2061 15° North 191 220 19,000  Level Houston Center
Sat 12:36:21 AM 30.3358 -97.1897 14° North 191 220 19,000  Level Houston Center
Sat 12:37:21 AM 30.3906 -97.1733 13° North 197 227 19,000  Level Houston Center
Sat 12:38:22 AM 30.4433 -97.1594 14° North 197 227 19,000  Level Houston Center
Sat 12:39:22 AM 30.4983 -97.1431 13° North 202 232 19,000  Level Houston Center
Sat 12:40:21 AM 30.5572 -97.1269 16° North 202 232 19,000  Level Houston Center
Sat 12:41:21 AM 30.6144 -97.1083 16° North 208 239 19,000  Level Houston Center
Sat 12:42:21 AM 30.6694 -97.0897 13° North 202 232 19,000  Level Houston Center
Sat 12:43:21 AM 30.7242 -97.0756 14° North 202 232 19,000  Level Houston Center
Sat 12:44:21 AM 30.7792 -97.0592 15° North 207 238 19,000  Level Houston Center
Sat 12:46:29 AM 30.8975 -97.0211 14° North 215 247 19,000  Level Fort Worth Center
Sat 12:47:29 AM 30.9494 -97.0064 13° North 202 232 19,000  Level Fort Worth Center
Sat 12:48:29 AM 31.0039 -96.9917 15° North 202 232 19,000  Level Fort Worth Center
Sat 12:49:29 AM 31.0581 -96.9744 13° North 202 232 19,000  Level Fort Worth Center
Sat 12:50:29 AM 31.1144 -96.9597 17° North 202 232 19,000  Level Fort Worth Center
Sat 12:51:29 AM 31.1644 -96.9422 13° North 197 227 19,000  Level Fort Worth Center
Sat 12:52:29 AM 31.2186 -96.9275 13° North 202 232 19,000  Level Fort Worth Center
Sat 12:53:29 AM 31.2728 -96.9125 17° North 202 232 19,000  Level Fort Worth Center
Sat 12:54:29 AM 31.3292 -96.8928 15° North 202 232 19,000  Level Fort Worth Center
Sat 12:55:29 AM 31.3856 -96.8756 13° North 202 232 19,000  Level Fort Worth Center
Sat 12:56:29 AM 31.4397 -96.8606 15° North 202 232 19,000  Level Fort Worth Center
Sat 12:57:29 AM 31.4939 -96.8433 14° North 202 232 19,000  Level Fort Worth Center
Sat 12:58:29 AM 31.5544 -96.8258 15° North 202 232 19,000  Level Fort Worth Center
Sat 12:59:29 AM 31.6086 -96.8083 13° North 202 232 19,000  Level Fort Worth Center
Sat 01:00:29 AM 31.6647 -96.7933 13° North 202 232 19,000  Level Fort Worth Center
Sat 01:01:29 AM 31.7192 -96.7783 17° North 202 232 19,000  Level Fort Worth Center
Sat 01:02:29 AM 31.7733 -96.7583 13° North 202 232 19,000  Level Fort Worth Center
Sat 01:03:29 AM 31.8294 -96.7433 13° North 202 232 19,000  Level Fort Worth Center
Sat 01:04:29 AM 31.8858 -96.7283 15° North 202 232 19,000  Level Fort Worth Center
Sat 01:05:29 AM 31.9400 -96.7108 17° North 202 232 19,000  Level Fort Worth Center
Sat 01:06:29 AM 31.9900 -96.6933 13° North 202 232 19,000  Level Fort Worth Center
Sat 01:07:29 AM 32.0442 -96.6781 15° North 202 232 19,000  Level Fort Worth Center
Sat 01:08:29 AM 32.1006 -96.6606 14° North 202 232 19,000  Level Fort Worth Center
Sat 01:09:29 AM 32.1608 -96.6428 17° North 202 232 19,000  Level Fort Worth Center
Sat 01:10:29 AM 32.2172 -96.6228 10° North 202 232 19,000  Level Fort Worth Center
Sat 01:11:29 AM 32.2672 -96.6125 16° North 202 232 19,000  Level Fort Worth Center
Sat 01:12:29 AM 32.3256 -96.5922 14° North 202 232 19,000  Level Fort Worth Center
Sat 01:13:29 AM 32.3775 -96.5769 14° North 202 232 19,000  Level Fort Worth Center
Sat 01:14:29 AM 32.4358 -96.5592 14° North 202 232 19,000  Level Fort Worth Center
Sat 01:15:29 AM 32.4881 -96.5439 14° North 202 232 19,000  Level Fort Worth Center
Sat 01:16:29 AM 32.5483 -96.5261 14° North 202 232 19,000  Level Fort Worth Center
Sat 01:17:29 AM 32.5983 -96.5108 16° North 197 227 19,000  Level Fort Worth Center
Sat 01:18:29 AM 32.6589 -96.4906 14° North 205 236 19,000  Level Fort Worth Center
Sat 01:19:29 AM 32.7089 -96.4753 17° North 205 236 19,000  Level Fort Worth Center
Sat 01:20:29 AM 32.7672 -96.4547 14° North 205 236 19,000  Level Fort Worth Center
Sat 01:21:29 AM 32.8192 -96.4394 14° North 200 230 19,000  Level Fort Worth Center
Sat 01:22:29 AM 32.8797 -96.4214 16° North 200 230 19,000  Level Fort Worth Center
Sat 01:23:29 AM 32.9317 -96.4036 16° North 200 230 19,000  Level Fort Worth Center
Sat 01:24:29 AM 32.9919 -96.3831 10° North 200 230 19,000  Level Fort Worth Center
Sat 01:25:29 AM 33.0419 -96.3725 17° North 200 230 19,000  Level Fort Worth Center
Sat 01:26:29 AM 33.1044 -96.3494 14° North 200 230 19,000  Level Fort Worth Center
Sat 01:27:29 AM 33.1564 -96.3342 14° North 200 230 19,000  Level Fort Worth Center
Sat 01:28:29 AM 33.2169 -96.3158 15° North 200 230 19,000  Level Fort Worth Center
Sat 01:29:29 AM 33.2731 -96.2978 15° North 200 230 19,000  Level Fort Worth Center
Sat 01:30:29 AM 33.3292 -96.2797 15° North 200 230 19,000  Level Fort Worth Center
Sat 01:31:29 AM 33.3856 -96.2617 15° North 200 230 19,000  Level Fort Worth Center
Sat 01:32:29 AM 33.4417 -96.2433 13° North 200 230 19,000  Level Fort Worth Center
Sat 01:33:29 AM 33.5000 -96.2278 16° North 205 236 19,000 -50 Level Fort Worth Center
Sat 01:34:29 AM 33.5542 -96.2094 16° North 200 230 18,900 -350 Descending Fort Worth Center
Sat 01:35:29 AM 33.6144 -96.1889 16° North 205 236 18,300 -750 Descending Fort Worth Center
Sat 01:36:29 AM 33.6767 -96.1681 13° North 216 249 17,400 -1,100 Descending Fort Worth Center
Sat 01:37:29 AM 33.7414 -96.1494 14° North 233 268 16,100 -1,100 Descending Fort Worth Center
Sat 01:38:29 AM 33.8036 -96.1311 11° North 233 268 15,200 -900 Descending Fort Worth Center
Sat 01:39:29 AM 33.8703 -96.1150 13° North 238 274 14,300 -800 Descending Fort Worth Center
Sat 01:40:29 AM 33.9244 -96.0994 14° North 232 267 13,600 -850 Descending Fort Worth Center
Sat 01:41:29 AM 33.9847 -96.0808 14° North 222 255 12,600 -950 Descending Fort Worth Center
Sat 01:42:29 AM 34.0450 -96.0625 15° North 222 255 11,700 -1,000 Descending Fort Worth Center
Sat 01:43:29 AM 34.1117 -96.0414 16° North 215 247 10,600 -1,000 Descending Fort Worth Center
Sat 01:44:29 AM 34.1739 -96.0203 14° North 215 247 9,700 -950 Descending Fort Worth Center
Sat 01:45:29 AM 34.2342 -96.0017 17° North 222 255 8,700 -1,000 Descending Fort Worth Center
Sat 01:46:29 AM 34.2986 -95.9781 13° North 222 255 7,700 -1,000 Descending Fort Worth Center
Sat 01:47:29 AM 34.3631 -95.9594 15° North 222 255 6,700 -900 Descending Fort Worth Center
Sat 01:48:29 AM 34.4275 -95.9381 19° North 222 255 5,900 -650 Descending Fort Worth Center
Sat 01:49:29 AM 34.4900 -95.9119 11° North 222 255 5,400 -500 Descending Fort Worth Center
Sat 01:50:29 AM 34.5481 -95.8983 11° North 227 261 4,900 -500 Descending Fort Worth Center

Login

Don't have an account? Register now (free) for customized features, flight alerts, and more!